Time;durP1;ratioP1;P1;durP2;ratioP2;P2;SDS_P1;SDS_P2;PMS_P1;PMS_P2;Temp;Humidity;BMP_temperature;BMP_pressure;BME280_temperature;BME280_humidity;BME280_pressure;Samples;Min_cycle;Max_cycle;Signal;HPM_P1;HPM_P2
2021/12/07 00:00:06;;;;;;;;;;;;;;;;;;2571846;23;1331;-85
2021/12/07 00:01:08;;;;;;;;;;;;;;;;;;2584105;22;1399;-85
2021/12/07 00:02:23;;;;;;;;;;;;;;;;;;2584180;23;1110;-85
2021/12/07 00:03:24;;;;;;;;;;;;;;;;;;2569731;23;1355;-85
2021/12/07 00:04:27;;;;;;;;;;;;;;;;;;2584603;22;1310;-85
2021/12/07 00:05:28;;;;;;;;;;;;;;;;;;2571808;23;1442;-85
2021/12/07 00:06:29;;;;;;;;;;;;;;;;;;2571713;23;1064;-85
2021/12/07 00:07:30;;;;;;;;;;;;;;;;;;2572057;23;1347;-84
2021/12/07 00:08:32;;;;;;;;;;;;;;;;;;2559393;23;2194;-84
2021/12/07 00:09:35;;;;;;;;;;;;;;;;;;2584886;22;1330;-85
2021/12/07 00:10:37;;;;;;;;;;;;;;;;;;2572267;23;1309;-85
2021/12/07 00:11:40;;;;;;;;;;;;;;;;;;2560550;23;1199;-85
2021/12/07 00:12:43;;;;;;;;;;;;;;;;;;2584952;22;1029;-84
2021/12/07 00:13:45;;;;;;;;;;;;;;;;;;2584669;23;1313;-85
2021/12/07 00:14:46;;;;;;;;;;;;;;;;;;2571829;23;1200;-86
2021/12/07 00:15:48;;;;;;;;;;;;;;;;;;2571987;23;1345;-85
2021/12/07 00:16:52;;;;;;;;;;;;;;;;;;2572152;23;1211;-85
2021/12/07 00:17:55;;;;;;;;;;;;;;;;;;2572494;23;1085;-84
2021/12/07 00:18:59;;;;;;;;;;;;;;;;;;2572235;23;1399;-86
2021/12/07 00:20:05;;;;;;;;;;;;;;;;;;2572661;23;1289;-85
2021/12/07 00:21:13;;;;;;;;;;;;;;;;;;2583613;23;1084;-84
2021/12/07 00:22:16;;;;;;;;;;;;;;;;;;2573115;23;1298;-85
2021/12/07 00:23:30;;;;;;;;;;;;;;;;;;2585368;22;747;-85
2021/12/07 00:24:35;;;;;;;;;;;;;;;;;;2584546;23;1346;-84
2021/12/07 00:25:52;;;;;;;;;;;;;;;;;;2571894;23;1063;-85
2021/12/07 00:26:56;;;;;;;;;;;;;;;;;;2585655;22;1269;-85
2021/12/07 00:29:14;;;;;;;;;;;;;;;;;;2580665;23;1896;-84
2021/12/07 00:30:17;;;;;;;;;;;;;;;;;;2572170;23;1273;-84
2021/12/07 00:31:30;;;;;;;;;;;;;;;;;;2572213;23;1175;-85
2021/12/07 00:32:41;;;;;;;;;;;;;;;;;;2588062;22;747;-84
2021/12/07 00:33:51;;;;;;;;;;;;;;;;;;2598090;22;991;-85
2021/12/07 00:35:13;;;;;;;;;;;;;;;;;;2570093;23;1266;-84
2021/12/07 00:36:18;;;;;;;;;;;;;;;;;;2568376;23;1293;-84
2021/12/07 00:37:26;;;;;;;;;;;;;;;;;;2573250;23;1325;-85
2021/12/07 00:38:31;;;;;;;;;;;;;;;;;;2573179;23;1236;-84
2021/12/07 00:39:40;;;;;;;;;;;;;;;;;;2584308;23;1293;-84
2021/12/07 00:40:58;;;;;;;;;;;;;;;;;;2559206;23;1268;-85
2021/12/07 00:42:02;;;;;;;;;;;;;;;;;;2570046;22;1263;-84
2021/12/07 00:43:04;;;;;;;;;;;;;;;;;;2583779;23;1306;-84
2021/12/07 00:44:17;;;;;;;;;;;;;;;;;;2557786;23;1153;-84
2021/12/07 00:45:21;;;;;;;;;;;;;;;;;;2572007;23;1205;-84
2021/12/07 00:46:28;;;;;;;;;;;;;;;;;;2583950;23;1289;-84
2021/12/07 00:47:32;;;;;;;;;;;;;;;;;;2585465;22;1186;-84
2021/12/07 00:48:39;;;;;;;;;;;;;;;;;;2596930;22;1888;-84
2021/12/07 00:49:48;;;;;;;;;;;;;;;;;;2596720;22;1233;-85
2021/12/07 00:50:54;;;;;;;;;;;;;;;;;;2595005;22;1231;-85
2021/12/07 00:51:58;;;;;;;;;;;;;;;;;;2571930;23;1215;-85
2021/12/07 00:53:02;;;;;;;;;;;;;;;;;;2571801;23;1196;-85
2021/12/07 00:54:09;;;;;;;;;;;;;;;;;;2572357;23;1159;-84
2021/12/07 00:55:18;;;;;;;;;;;;;;;;;;2571488;23;1389;-85
2021/12/07 00:56:23;;;;;;;;;;;;;;;;;;2585339;22;1306;-85
2021/12/07 00:57:30;;;;;;;;;;;;;;;;;;2596273;22;1249;-84
2021/12/07 00:58:32;;;;;;;;;;;;;;;;;;2585741;22;760;-85
2021/12/07 00:59:41;;;;;;;;;;;;;;;;;;2584447;23;1300;-84
2021/12/07 01:00:43;;;;;;;;;;;;;;;;;;2572661;23;1281;-84
2021/12/07 01:01:44;;;;;;;;;;;;;;;;;;2584296;23;1334;-83
2021/12/07 01:02:46;;;;;;;;;;;;;;;;;;2571632;23;1434;-84
2021/12/07 01:03:49;;;;;;;;;;;;;;;;;;2584942;22;797;-84
2021/12/07 01:04:58;;;;;;;;;;;;;;;;;;2584348;23;1112;-84
2021/12/07 01:06:15;;;;;;;;;;;;;;;;;;2585863;22;762;-85
2021/12/07 01:07:33;;;;;;;;;;;;;;;;;;2597423;22;1292;-84
2021/12/07 01:08:57;;;;;;;;;;;;;;;;;;2592690;22;1212;-85
2021/12/07 01:24:55;;;;;;;;;;;;;;;;;;2546601;23;1258;-85
2021/12/07 01:25:57;;;;;;;;;;;;;;;;;;2534377;23;1484;-85
2021/12/07 01:26:59;;;;;;;;;;;;;;;;;;2522010;23;1371;-87
2021/12/07 01:28:13;;;;;;;;;;;;;;;;;;2545441;23;1271;-86
2021/12/07 01:29:20;;;;;;;;;;;;;;;;;;2574462;23;1930;-85
2021/12/07 01:30:35;;;;;;;;;;;;;;;;;;2572534;23;1225;-86
2021/12/07 01:31:48;;;;;;;;;;;;;;;;;;2574740;23;1281;-85
2021/12/07 01:33:07;;;;;;;;;;;;;;;;;;2584040;23;1413;-84
2021/12/07 01:34:25;;;;;;;;;;;;;;;;;;2584418;23;1317;-84
2021/12/07 01:35:49;;;;;;;;;;;;;;;;;;2575361;23;1276;-85
2021/12/07 01:37:11;;;;;;;;;;;;;;;;;;2576569;23;1203;-85
2021/12/07 01:41:24;;;;;;;;;;;;;;;;;;2123674;27;1334;-84
2021/12/07 01:44:11;;;;;;;;;;;;;;;;;;2122938;28;1293;-85
2021/12/07 01:45:39;;;;;;;;;;;;;;;;;;2114770;28;1360;-83
2021/12/07 01:46:56;;;;;;;;;;;;;;;;;;2114353;28;1827;-85
2021/12/07 01:48:06;;;;;;;;;;;;;;;;;;2108114;28;1142;-84
2021/12/07 01:50:46;;;;;;;;;;;;;;;;;;2117005;28;1322;-84
2021/12/07 01:52:08;;;;;;;;;;;;;;;;;;2120280;28;1926;-84
2021/12/07 01:57:47;;;;;;;;;;;;;;;;;;2123161;28;1217;-84
2021/12/07 02:00:10;;;;;;;;;;;;;;;;;;2097308;28;1909;-85
2021/12/07 02:01:14;;;;;;;;;;;;;;;;;;2104166;28;1008;-84
2021/12/07 02:02:16;;;;;;;;;;;;;;;;;;2122789;28;1230;-85
2021/12/07 02:03:17;;;;;;;;;;;;;;;;;;2122807;27;1153;-85
2021/12/07 02:04:22;;;;;;;;;;;;;;;;;;2122246;28;1288;-84
2021/12/07 02:05:24;;;;;;;;;;;;;;;;;;2123176;28;1254;-85
2021/12/07 02:06:26;;;;;;;;;;;;;;;;;;2123046;28;1145;-84
2021/12/07 02:07:28;;;;;;;;;;;;;;;;;;2098272;28;1837;-84
2021/12/07 02:08:30;;;;;;;;;;;;;;;;;;2106122;28;1222;-84
2021/12/07 02:09:33;;;;;;;;;;;;;;;;;;2106036;28;1261;-84
2021/12/07 02:10:36;;;;;;;;;;;;;;;;;;2097871;28;1248;-85
2021/12/07 02:11:47;;;;;;;;;;;;;;;;;;2106603;28;2119;-85
2021/12/07 02:12:51;;;;;;;;;;;;;;;;;;2114502;28;1313;-85
2021/12/07 02:14:14;;;;;;;;;;;;;;;;;;2105825;28;1285;-85
2021/12/07 02:15:22;;;;;;;;;;;;;;;;;;2105847;28;1207;-85
2021/12/07 02:16:26;;;;;;;;;;;;;;;;;;2105939;28;1422;-84
2021/12/07 02:17:28;;;;;;;;;;;;;;;;;;2106250;28;2029;-84
2021/12/07 02:18:31;;;;;;;;;;;;;;;;;;2113876;28;1194;-85
2021/12/07 02:19:53;;;;;;;;;;;;;;;;;;2113386;28;1338;-86
2021/12/07 02:21:11;;;;;;;;;;;;;;;;;;2108429;28;1956;-88
2021/12/07 02:22:35;;;;;;;;;;;;;;;;;;2113408;28;1287;-86
2021/12/07 02:23:40;;;;;;;;;;;;;;;;;;2122471;28;1139;-85
2021/12/07 02:26:10;;;;;;;;;;;;;;;;;;2113859;28;1335;-86
2021/12/07 02:27:22;;;;;;;;;;;;;;;;;;2104740;28;2133;-87
2021/12/07 02:28:31;;;;;;;;;;;;;;;;;;2115249;28;1057;-86
2021/12/07 02:29:48;;;;;;;;;;;;;;;;;;2113866;28;1353;-87
2021/12/07 02:30:56;;;;;;;;;;;;;;;;;;2107100;28;1464;-87
2021/12/07 02:32:06;;;;;;;;;;;;;;;;;;2105701;28;2077;-87
2021/12/07 02:33:18;;;;;;;;;;;;;;;;;;2106656;28;1119;-86
2021/12/07 02:34:25;;;;;;;;;;;;;;;;;;2106474;28;1176;-87
2021/12/07 02:35:28;;;;;;;;;;;;;;;;;;2106695;28;1199;-87
2021/12/07 02:36:39;;;;;;;;;;;;;;;;;;2105438;28;1997;-87
2021/12/07 02:37:45;;;;;;;;;;;;;;;;;;2097980;28;1235;-86
2021/12/07 02:38:58;;;;;;;;;;;;;;;;;;2097167;28;1123;-87
2021/12/07 02:40:05;;;;;;;;;;;;;;;;;;2105820;28;1132;-86
2021/12/07 02:41:15;;;;;;;;;;;;;;;;;;2104648;28;1904;-86
2021/12/07 02:42:16;;;;;;;;;;;;;;;;;;2097155;28;2019;-88
2021/12/07 02:43:23;;;;;;;;;;;;;;;;;;2105073;28;1317;-87
2021/12/07 02:44:25;;;;;;;;;;;;;;;;;;2105456;28;1417;-87
2021/12/07 02:45:27;;;;;;;;;;;;;;;;;;2105563;28;1305;-85
2021/12/07 02:46:27;;;;;;;;;;;;;;;;;;2105306;28;1406;-88
2021/12/07 02:47:33;;;;;;;;;;;;;;;;;;2105771;28;1207;-85
2021/12/07 02:48:34;;;;;;;;;;;;;;;;;;2105095;28;1273;-86
2021/12/07 02:49:37;;;;;;;;;;;;;;;;;;2105655;28;1435;-86
2021/12/07 02:50:38;;;;;;;;;;;;;;;;;;2105287;28;1352;-88
2021/12/07 02:51:41;;;;;;;;;;;;;;;;;;2103957;28;2014;-85
2021/12/07 02:52:43;;;;;;;;;;;;;;;;;;2107765;28;1275;-86
2021/12/07 02:53:46;;;;;;;;;;;;;;;;;;2108281;28;1213;-85
2021/12/07 02:54:50;;;;;;;;;;;;;;;;;;2107784;28;1288;-87
2021/12/07 02:55:58;;;;;;;;;;;;;;;;;;2109114;28;1527;-86
2021/12/07 02:57:02;;;;;;;;;;;;;;;;;;2115816;28;2040;-85
2021/12/07 02:58:05;;;;;;;;;;;;;;;;;;2108048;28;1317;-87
2021/12/07 02:59:06;;;;;;;;;;;;;;;;;;2099976;28;1313;-86
2021/12/07 03:00:14;;;;;;;;;;;;;;;;;;2107644;28;1324;-86
2021/12/07 03:01:21;;;;;;;;;;;;;;;;;;2116455;28;1894;-85
2021/12/07 03:02:23;;;;;;;;;;;;;;;;;;2106660;28;2116;-85
2021/12/07 03:03:25;;;;;;;;;;;;;;;;;;2099820;28;1336;-87
2021/12/07 03:04:32;;;;;;;;;;;;;;;;;;2108240;28;1033;-85
2021/12/07 03:05:42;;;;;;;;;;;;;;;;;;2108438;28;1099;-87
2021/12/07 03:06:55;;;;;;;;;;;;;;;;;;2107690;28;2099;-87
2021/12/07 03:08:20;;;;;;;;;;;;;;;;;;2109481;28;1527;-87
2021/12/07 03:26:08;;;;;;;;;;;;;;;;;;2102096;28;1270;-87
2021/12/07 03:27:11;;;;;;;;;;;;;;;;;;2104087;28;2065;-86
2021/12/07 03:28:18;;;;;;;;;;;;;;;;;;2099403;28;1195;-86
2021/12/07 03:29:24;;;;;;;;;;;;;;;;;;2108618;28;1372;-87
2021/12/07 03:30:25;;;;;;;;;;;;;;;;;;2107954;28;1298;-86
2021/12/07 03:31:30;;;;;;;;;;;;;;;;;;2107380;28;1095;-86
2021/12/07 03:32:53;;;;;;;;;;;;;;;;;;2115912;28;1288;-86
2021/12/07 03:34:01;;;;;;;;;;;;;;;;;;2107604;28;1147;-86
2021/12/07 03:35:05;;;;;;;;;;;;;;;;;;2107669;28;1316;-86
2021/12/07 03:36:10;;;;;;;;;;;;;;;;;;2099466;28;1286;-86
2021/12/07 03:37:17;;;;;;;;;;;;;;;;;;2099638;28;2102;-86
2021/12/07 03:38:20;;;;;;;;;;;;;;;;;;2100481;28;1281;-86
2021/12/07 03:39:20;;;;;;;;;;;;;;;;;;2107491;28;1511;-86
2021/12/07 03:40:23;;;;;;;;;;;;;;;;;;2107562;28;1383;-87
2021/12/07 03:41:24;;;;;;;;;;;;;;;;;;2099248;28;1906;-89
2021/12/07 03:42:26;;;;;;;;;;;;;;;;;;2098777;28;1995;-86
2021/12/07 03:43:32;;;;;;;;;;;;;;;;;;2099600;28;1329;-86
2021/12/07 03:44:34;;;;;;;;;;;;;;;;;;2099929;28;1293;-87
2021/12/07 03:45:37;;;;;;;;;;;;;;;;;;2107494;28;1491;-85
2021/12/07 03:46:42;;;;;;;;;;;;;;;;;;2115053;28;2012;-87
2021/12/07 03:47:43;;;;;;;;;;;;;;;;;;2107705;28;1247;-86
2021/12/07 03:48:51;;;;;;;;;;;;;;;;;;2098997;28;1345;-87
2021/12/07 03:49:51;;;;;;;;;;;;;;;;;;2100173;28;1297;-87
2021/12/07 03:50:56;;;;;;;;;;;;;;;;;;2099353;28;1440;-86
2021/12/07 03:51:58;;;;;;;;;;;;;;;;;;2094123;28;2030;-87
2021/12/07 03:53:02;;;;;;;;;;;;;;;;;;2107902;28;1153;-89
2021/12/07 03:54:04;;;;;;;;;;;;;;;;;;2107329;28;1117;-87
2021/12/07 03:55:06;;;;;;;;;;;;;;;;;;2107679;28;1443;-85
2021/12/07 03:56:08;;;;;;;;;;;;;;;;;;2107613;28;772;-86
2021/12/07 03:57:12;;;;;;;;;;;;;;;;;;2115716;28;2180;-85
2021/12/07 03:58:14;;;;;;;;;;;;;;;;;;2115813;28;1186;-85
2021/12/07 03:59:15;;;;;;;;;;;;;;;;;;2099448;28;1297;-85
2021/12/07 04:00:18;;;;;;;;;;;;;;;;;;2098846;28;1294;-86
2021/12/07 04:01:24;;;;;;;;;;;;;;;;;;2107496;28;1902;-89
2021/12/07 04:02:26;;;;;;;;;;;;;;;;;;2105736;28;2049;-85
2021/12/07 04:03:32;;;;;;;;;;;;;;;;;;2099133;28;1138;-86
2021/12/07 04:04:34;;;;;;;;;;;;;;;;;;2099430;28;1286;-85
2021/12/07 04:05:36;;;;;;;;;;;;;;;;;;2099136;28;1230;-86
2021/12/07 04:06:38;;;;;;;;;;;;;;;;;;2107583;28;1311;-85
2021/12/07 04:07:41;;;;;;;;;;;;;;;;;;2107395;28;1261;-88
2021/12/07 04:08:45;;;;;;;;;;;;;;;;;;2099081;28;1344;-85
2021/12/07 04:09:50;;;;;;;;;;;;;;;;;;2099972;28;1385;-85
2021/12/07 04:10:53;;;;;;;;;;;;;;;;;;2099095;28;1229;-88
2021/12/07 04:11:54;;;;;;;;;;;;;;;;;;2098343;28;1966;-87
2021/12/07 04:12:55;;;;;;;;;;;;;;;;;;2099218;28;1442;-86
2021/12/07 04:13:56;;;;;;;;;;;;;;;;;;2098811;28;1171;-85
2021/12/07 04:15:01;;;;;;;;;;;;;;;;;;2099392;28;1428;-87
2021/12/07 04:16:02;;;;;;;;;;;;;;;;;;2098948;28;1356;-85
2021/12/07 04:17:04;;;;;;;;;;;;;;;;;;2107134;28;1163;-86
2021/12/07 04:18:06;;;;;;;;;;;;;;;;;;2107255;28;1166;-85
2021/12/07 04:19:07;;;;;;;;;;;;;;;;;;2107173;28;1197;-85
2021/12/07 04:20:10;;;;;;;;;;;;;;;;;;2107218;28;1312;-85
2021/12/07 04:21:11;;;;;;;;;;;;;;;;;;2098775;28;1902;-86
2021/12/07 04:22:12;;;;;;;;;;;;;;;;;;2107360;28;1386;-87
2021/12/07 04:23:14;;;;;;;;;;;;;;;;;;2107200;28;1440;-88
2021/12/07 04:24:16;;;;;;;;;;;;;;;;;;2107431;28;764;-86
2021/12/07 04:25:18;;;;;;;;;;;;;;;;;;2115522;28;1238;-86
2021/12/07 04:26:18;;;;;;;;;;;;;;;;;;2107207;28;1167;-85
2021/12/07 04:27:20;;;;;;;;;;;;;;;;;;2107163;28;1183;-86
2021/12/07 04:28:22;;;;;;;;;;;;;;;;;;2107237;28;1322;-86
2021/12/07 04:29:23;;;;;;;;;;;;;;;;;;2107344;28;1335;-86
2021/12/07 04:30:26;;;;;;;;;;;;;;;;;;2115907;28;1037;-87
2021/12/07 04:31:27;;;;;;;;;;;;;;;;;;2107089;28;1110;-89
2021/12/07 04:32:28;;;;;;;;;;;;;;;;;;2099042;28;1210;-86
2021/12/07 04:33:29;;;;;;;;;;;;;;;;;;2107193;28;1265;-90
2021/12/07 04:34:31;;;;;;;;;;;;;;;;;;2107454;28;1233;-88
2021/12/07 04:35:32;;;;;;;;;;;;;;;;;;2107241;28;1234;-87
2021/12/07 04:36:33;;;;;;;;;;;;;;;;;;2107178;28;1327;-87
2021/12/07 04:37:34;;;;;;;;;;;;;;;;;;2098621;28;1292;-87
2021/12/07 04:38:36;;;;;;;;;;;;;;;;;;2098713;28;1309;-86
2021/12/07 04:39:39;;;;;;;;;;;;;;;;;;2107047;28;1365;-86
2021/12/07 04:40:40;;;;;;;;;;;;;;;;;;2107238;28;1163;-87
2021/12/07 04:41:44;;;;;;;;;;;;;;;;;;2115493;28;1981;-85
2021/12/07 04:42:45;;;;;;;;;;;;;;;;;;2106949;28;1392;-88
2021/12/07 04:43:48;;;;;;;;;;;;;;;;;;2107230;28;1313;-85
2021/12/07 04:44:53;;;;;;;;;;;;;;;;;;2106898;28;1336;-86
2021/12/07 04:46:05;;;;;;;;;;;;;;;;;;2107239;28;1067;-85
2021/12/07 04:47:13;;;;;;;;;;;;;;;;;;2106636;28;2025;-86
2021/12/07 04:48:36;;;;;;;;;;;;;;;;;;2107890;28;1405;-85
2021/12/07 04:50:01;;;;;;;;;;;;;;;;;;2106889;28;1345;-87
2021/12/07 04:57:45;;;;;;;;;;;;;;;;;;2107379;28;1240;-87
2021/12/07 04:58:46;;;;;;;;;;;;;;;;;;2115422;28;1297;-86
2021/12/07 04:59:47;;;;;;;;;;;;;;;;;;2106568;28;1286;-86
2021/12/07 05:00:49;;;;;;;;;;;;;;;;;;2098424;28;1396;-86
2021/12/07 05:01:51;;;;;;;;;;;;;;;;;;2098087;28;1977;-86
2021/12/07 05:02:56;;;;;;;;;;;;;;;;;;2090079;28;1343;-86
2021/12/07 05:04:00;;;;;;;;;;;;;;;;;;2091099;28;1349;-86
2021/12/07 05:05:01;;;;;;;;;;;;;;;;;;2107323;28;1415;-86
2021/12/07 05:06:02;;;;;;;;;;;;;;;;;;2098365;28;1281;-84
2021/12/07 05:07:09;;;;;;;;;;;;;;;;;;2097941;28;1784;-85
2021/12/07 05:08:14;;;;;;;;;;;;;;;;;;2099556;28;1294;-85
2021/12/07 05:09:36;;;;;;;;;;;;;;;;;;2107921;28;1215;-86
2021/12/07 05:11:01;;;;;;;;;;;;;;;;;;2106751;28;1329;-86
2021/12/07 05:13:32;;;;;;;;;;;;;;;;;;2107371;28;1169;-85
2021/12/07 05:14:35;;;;;;;;;;;;;;;;;;2108659;28;1174;-85
2021/12/07 05:16:00;;;;;;;;;;;;;;;;;;2109631;28;1324;-87
2021/12/07 05:17:16;;;;;;;;;;;;;;;;;;2108345;28;1298;-86
2021/12/07 05:18:35;;;;;;;;;;;;;;;;;;2106759;28;1351;-85
2021/12/07 05:23:57;;;;;;;;;;;;;;;;;;2106688;28;1103;-87
2021/12/07 05:37:47;;;;;;;;;;;;;;;;;;2098730;28;1280;-86
2021/12/07 05:38:51;;;;;;;;;;;;;;;;;;2091940;28;1590;-85
2021/12/07 05:39:53;;;;;;;;;;;;;;;;;;2097889;28;1223;-87
2021/12/07 05:40:57;;;;;;;;;;;;;;;;;;2096813;28;1194;-87
2021/12/07 05:41:59;;;;;;;;;;;;;;;;;;2096847;28;1902;-87
2021/12/07 05:43:30;;;;;;;;;;;;;;;;;;2089190;28;1162;-89
2021/12/07 05:44:32;;;;;;;;;;;;;;;;;;2092956;28;1341;-87
2021/12/07 05:45:35;;;;;;;;;;;;;;;;;;2097611;28;1238;-87
2021/12/07 05:46:39;;;;;;;;;;;;;;;;;;2097558;28;2253;-90
2021/12/07 05:47:41;;;;;;;;;;;;;;;;;;2097891;28;1283;-87
2021/12/07 05:48:43;;;;;;;;;;;;;;;;;;2105872;28;1298;-86
2021/12/07 05:49:44;;;;;;;;;;;;;;;;;;2114588;28;1276;-88
2021/12/07 05:50:46;;;;;;;;;;;;;;;;;;2114054;28;1186;-87
2021/12/07 05:51:46;;;;;;;;;;;;;;;;;;2105960;28;780;-87
2021/12/07 05:52:48;;;;;;;;;;;;;;;;;;2105915;28;1316;-87
2021/12/07 05:53:49;;;;;;;;;;;;;;;;;;2106317;28;887;-88
2021/12/07 05:54:50;;;;;;;;;;;;;;;;;;2114531;28;1308;-87
2021/12/07 05:56:21;;;;;;;;;;;;;;;;;;2114810;28;1293;-89
2021/12/07 05:59:57;;;;;;;;;;;;;;;;;;2107663;28;1324;-89
2021/12/07 06:03:32;;;;;;;;;;;;;;;;;;2080309;28;1423;-89
2021/12/07 06:05:02;;;;;;;;;;;;;;;;;;;;;
2021/12/07 06:06:35;;;;;;;;;;;;;;;;;;2109276;28;1328;-89
2021/12/07 06:07:50;;;;;;;;;;;;;;;;;;2107419;28;1324;-90
2021/12/07 06:11:15;;;;;;;;;;;;;;;;;;2072671;28;1485;-89
2021/12/07 06:21:06;;;;;;;;;;;;;;;;;;2050354;29;587;-89
2021/12/07 06:22:23;;;;;;;;;;;;;;;;;;2043744;29;2124;-89
2021/12/07 06:23:48;;;;;;;;;;;;;;;;;;2041457;29;1230;-89
2021/12/07 06:25:04;;;;;;;;;;;;;;;;;;2033677;29;1258;-89
2021/12/07 06:26:25;;;;;;;;;;;;;;;;;;2034231;29;1139;-91
2021/12/07 06:27:52;;;;;;;;;;;;;;;;;;2055329;28;1227;-89
2021/12/07 06:28:53;;;;;;;;;;;;;;;;;;2068565;28;1303;-91
2021/12/07 06:30:04;;;;;;;;;;;;;;;;;;2092072;28;1230;-91
2021/12/07 06:31:08;;;;;;;;;;;;;;;;;;2101482;28;1190;-89
2021/12/07 06:35:25;;;;;;;;;;;;;;;;;;2073913;28;1295;-91
2021/12/07 06:43:57;;;;;;;;;;;;;;;;;;2058998;28;1149;-88
2021/12/07 06:45:25;;;;;;;;;;;;;;;;;;2059161;28;709;-88
2021/12/07 06:46:34;;;;;;;;;;;;;;;;;;2058200;28;2030;-89
2021/12/07 06:48:12;;;;;;;;;;;;;;;;;;2050847;29;1288;-88
2021/12/07 06:49:24;;;;;;;;;;;;;;;;;;2065400;28;960;-88
2021/12/07 06:50:32;;;;;;;;;;;;;;;;;;2099658;28;1208;-88
2021/12/07 06:53:36;;;;;;;;;;;;;;;;;;2085077;28;1068;-87
2021/12/07 07:02:13;;;;;;;;;;;;;;;;;;2090614;28;2149;-89
2021/12/07 07:04:04;;;;;;;;;;;;;;;;;;2091753;28;932;-89
2021/12/07 07:05:16;;;;;;;;;;;;;;;;;;2099589;28;1364;-90
2021/12/07 07:06:38;;;;;;;;;;;;;;;;;;2099125;28;1335;-89
2021/12/07 07:07:48;;;;;;;;;;;;;;;;;;2079549;28;1257;-89
2021/12/07 07:08:57;;;;;;;;;;;;;;;;;;2093067;28;1258;-88
2021/12/07 07:10:18;;;;;;;;;;;;;;;;;;2094425;28;1330;-89
2021/12/07 07:11:29;;;;;;;;;;;;;;;;;;2091319;28;1207;-89
2021/12/07 07:13:00;;;;;;;;;;;;;;;;;;2094755;28;1164;-89
2021/12/07 07:14:05;;;;;;;;;;;;;;;;;;2099280;28;1449;-89
2021/12/07 07:15:10;;;;;;;;;;;;;;;;;;2091116;28;1238;-90
2021/12/07 07:34:12;;;;;;;;;;;;;;;;;;2040358;28;1285;-92
2021/12/07 07:36:43;;;;;;;;;;;;;;;;;;2057902;28;1292;-90
2021/12/07 07:37:47;;;;;;;;;;;;;;;;;;2058244;28;742;-91
2021/12/07 07:43:17;;;;;;;;;;;;;;;;;;;;;
2021/12/07 07:45:10;;;;;;;;;;;;;;;;;;2093026;28;1255;-90
2021/12/07 07:46:45;;;;;;;;;;;;;;;;;;2099793;28;1693;-86
2021/12/07 07:52:19;;;;;;;;;;;;;;;;;;2067240;28;1405;-85
2021/12/07 07:53:31;;;;;;;;;;;;;;;;;;2069298;28;1257;-84
2021/12/07 07:54:37;;;;;;;;;;;;;;;;;;2086733;28;3100;-86
2021/12/07 07:55:42;;;;;;;;;;;;;;;;;;2090648;28;1414;-87
2021/12/07 07:57:01;;;;;;;;;;;;;;;;;;2084729;28;1917;-87
2021/12/07 07:58:02;;;;;;;;;;;;;;;;;;2092319;28;1405;-87
2021/12/07 07:59:15;;;;;;;;;;;;;;;;;;2092078;28;1235;-87
2021/12/07 08:00:17;;;;;;;;;;;;;;;;;;2096168;28;1583;-87
2021/12/07 08:01:29;;;;;;;;;;;;;;;;;;2098599;28;1180;-86
2021/12/07 08:02:33;;;;;;;;;;;;;;;;;;2100378;28;2067;-87
2021/12/07 08:03:41;;;;;;;;;;;;;;;;;;2099713;28;1278;-87
2021/12/07 08:04:43;;;;;;;;;;;;;;;;;;2100894;28;1338;-87
2021/12/07 08:05:50;;;;;;;;;;;;;;;;;;2099270;28;1591;-87
2021/12/07 08:07:02;;;;;;;;;;;;;;;;;;2091278;28;1178;-87
2021/12/07 08:08:25;;;;;;;;;;;;;;;;;;2094055;28;1267;-88
2021/12/07 08:09:26;;;;;;;;;;;;;;;;;;2099605;28;1358;-86
2021/12/07 08:10:28;;;;;;;;;;;;;;;;;;2091295;28;1223;-88
2021/12/07 08:11:42;;;;;;;;;;;;;;;;;;2099512;28;1283;-92
2021/12/07 08:12:46;;;;;;;;;;;;;;;;;;2092970;28;1350;-87
2021/12/07 08:15:59;;;;;;;;;;;;;;;;;;2091226;28;1587;-85
2021/12/07 08:17:10;;;;;;;;;;;;;;;;;;2095576;28;1315;-87
2021/12/07 08:18:24;;;;;;;;;;;;;;;;;;2099726;28;1739;-87
2021/12/07 08:19:40;;;;;;;;;;;;;;;;;;2095654;28;1220;-86
2021/12/07 08:20:42;;;;;;;;;;;;;;;;;;2084991;28;1376;-88
2021/12/07 08:21:53;;;;;;;;;;;;;;;;;;;;;
2021/12/07 08:23:04;;;;;;;;;;;;;;;;;;2091487;28;1983;-86
2021/12/07 08:24:06;;;;;;;;;;;;;;;;;;2092419;28;1300;-86
2021/12/07 08:33:09;;;;;;;;;;;;;;;;;;2080194;28;1655;-86
2021/12/07 08:34:20;;;;;;;;;;;;;;;;;;2091536;28;1660;-87
2021/12/07 08:35:32;;;;;;;;;;;;;;;;;;2093170;28;1180;-87
2021/12/07 08:36:37;;;;;;;;;;;;;;;;;;2098696;28;1235;-86
2021/12/07 08:37:39;;;;;;;;;;;;;;;;;;2091851;28;1412;-87
2021/12/07 08:39:05;;;;;;;;;;;;;;;;;;;;;
2021/12/07 08:40:53;;;;;;;;;;;;;;;;;;;;;
2021/12/07 08:45:58;;;;;;;;;;;;;;;;;;2095900;28;1272;-86
2021/12/07 08:51:39;;;;;;;;;;;;;;;;;;2096995;28;1881;-87
2021/12/07 09:06:39;;;;;;;;;;;;;;;;;;2065871;28;971;-87
2021/12/07 09:17:38;;;;;;;;;;;;;;;;;;2012943;29;1851;-85
2021/12/07 09:33:42;;;;;;;;;;;;;;;;;;2037234;28;1679;-86
2021/12/07 09:35:07;;;;;;;;;;;;;;;;;;2050243;28;1374;-87
2021/12/07 09:36:14;;;;;;;;;;;;;;;;;;2036200;29;1395;-88
2021/12/07 09:37:25;;;;;;;;;;;;;;;;;;2044117;28;1583;-86
2021/12/07 09:38:33;;;;;;;;;;;;;;;;;;2055553;28;1785;-87
2021/12/07 09:41:10;;;;;;;;;;;;;;;;;;2078058;28;1187;-86
2021/12/07 09:43:56;;;;;;;;;;;;;;;;;;2082892;28;1096;-87
2021/12/07 09:48:32;;;;;;;;;;;;;;;;;;2057078;28;982;-88
2021/12/07 09:49:50;;;;;;;;;;;;;;;;;;2057131;28;808;-87
2021/12/07 09:51:08;;;;;;;;;;;;;;;;;;2056965;28;1389;-86
2021/12/07 10:01:33;;;;;;;;;;;;;;;;;;2085545;28;1232;-87
2021/12/07 10:04:35;;;;;;;;;;;;;;;;;;2058363;28;1257;-88
2021/12/07 10:07:45;;;;;;;;;;;;;;;;;;2083356;28;1426;-88
2021/12/07 10:09:02;;;;;;;;;;;;;;;;;;2074764;28;1098;-87
2021/12/07 10:10:30;;;;;;;;;;;;;;;;;;2078916;28;1357;-86
2021/12/07 10:12:01;;;;;;;;;;;;;;;;;;;;;
2021/12/07 10:13:06;;;;;;;;;;;;;;;;;;2080498;28;1242;-87
2021/12/07 10:14:26;;;;;;;;;;;;;;;;;;2082866;28;1385;-86
2021/12/07 10:15:53;;;;;;;;;;;;;;;;;;2076984;28;1533;-88
2021/12/07 10:17:40;;;;;;;;;;;;;;;;;;2099926;28;1316;-87
2021/12/07 10:20:56;;;;;;;;;;;;;;;;;;2108323;28;1320;-85
2021/12/07 10:22:03;;;;;;;;;;;;;;;;;;2101960;28;1880;-85
2021/12/07 10:23:22;;;;;;;;;;;;;;;;;;2100592;28;1906;-88
2021/12/07 10:24:31;;;;;;;;;;;;;;;;;;2116318;28;1145;-86
2021/12/07 10:25:41;;;;;;;;;;;;;;;;;;2113869;28;1179;-88
2021/12/07 10:30:19;;;;;;;;;;;;;;;;;;2078296;28;1421;-87
2021/12/07 10:33:09;;;;;;;;;;;;;;;;;;2101608;28;1682;-86
2021/12/07 10:34:14;;;;;;;;;;;;;;;;;;2099814;28;1227;-88
2021/12/07 10:36:55;;;;;;;;;;;;;;;;;;2101055;28;1888;-86
2021/12/07 10:38:17;;;;;;;;;;;;;;;;;;2105718;28;1726;-86
2021/12/07 10:45:36;;;;;;;;;;;;;;;;;;2091099;28;1251;-87
2021/12/07 10:46:58;;;;;;;;;;;;;;;;;;2095756;28;1286;-87
2021/12/07 10:48:36;;;;;;;;;;;;;;;;;;2090892;28;1258;-88
2021/12/07 10:49:47;;;;;;;;;;;;;;;;;;2091300;28;1100;-87
2021/12/07 10:50:49;;;;;;;;;;;;;;;;;;2084104;28;1241;-88
2021/12/07 10:52:13;;;;;;;;;;;;;;;;;;2092256;28;1222;-87
2021/12/07 10:53:16;;;;;;;;;;;;;;;;;;2095873;28;1224;-88
2021/12/07 10:56:52;;;;;;;;;;;;;;;;;;;;;
2021/12/07 11:00:15;;;;;;;;;;;;;;;;;;2091035;28;1310;-86
2021/12/07 11:01:41;;;;;;;;;;;;;;;;;;2087196;28;1129;-86
2021/12/07 11:02:46;;;;;;;;;;;;;;;;;;2084896;28;1126;-86
2021/12/07 11:03:47;;;;;;;;;;;;;;;;;;2083434;28;1989;-86
2021/12/07 11:04:50;;;;;;;;;;;;;;;;;;2091120;28;1199;-86
2021/12/07 11:05:56;;;;;;;;;;;;;;;;;;2083504;28;1385;-87
2021/12/07 11:07:16;;;;;;;;;;;;;;;;;;2091547;28;1070;-86
2021/12/07 11:08:19;;;;;;;;;;;;;;;;;;2099925;28;883;-85
2021/12/07 11:09:22;;;;;;;;;;;;;;;;;;2091174;28;1356;-86
2021/12/07 11:10:31;;;;;;;;;;;;;;;;;;2092284;28;883;-87
2021/12/07 11:11:32;;;;;;;;;;;;;;;;;;2099877;28;1904;-87
2021/12/07 11:12:44;;;;;;;;;;;;;;;;;;2099812;28;1091;-86
2021/12/07 11:13:50;;;;;;;;;;;;;;;;;;2099787;28;820;-86
2021/12/07 11:14:53;;;;;;;;;;;;;;;;;;2100296;28;899;-87
2021/12/07 11:15:58;;;;;;;;;;;;;;;;;;2091257;28;1228;-84
2021/12/07 11:17:04;;;;;;;;;;;;;;;;;;2083534;28;1279;-86
2021/12/07 11:18:14;;;;;;;;;;;;;;;;;;2092344;28;1070;-86
2021/12/07 11:19:23;;;;;;;;;;;;;;;;;;2091223;28;1455;-87
2021/12/07 11:20:25;;;;;;;;;;;;;;;;;;2083792;28;1318;-86
2021/12/07 11:21:35;;;;;;;;;;;;;;;;;;2083278;28;1220;-86
2021/12/07 11:22:38;;;;;;;;;;;;;;;;;;2084025;28;1300;-84
2021/12/07 11:23:44;;;;;;;;;;;;;;;;;;2091661;28;1973;-84
2021/12/07 11:24:45;;;;;;;;;;;;;;;;;;2099835;28;776;-85
2021/12/07 11:30:47;;;;;;;;;;;;;;;;;;2103469;28;1271;-86
2021/12/07 11:32:20;;;;;;;;;;;;;;;;;;2076368;28;1320;-86
2021/12/07 11:33:33;;;;;;;;;;;;;;;;;;2066972;28;1354;-86
2021/12/07 11:34:50;;;;;;;;;;;;;;;;;;2086519;28;1198;-87
2021/12/07 11:36:40;;;;;;;;;;;;;;;;;;2088166;28;1389;-86
2021/12/07 11:38:13;;;;;;;;;;;;;;;;;;2083675;28;1292;-87
2021/12/07 11:42:50;;;;;;;;;;;;;;;;;;2101867;28;1256;-86
2021/12/07 11:55:56;;;;;;;;;;;;;;;;;;2083902;28;1246;-83
2021/12/07 12:55:23;;;;;;;;;;;;;;;;;;2026876;28;1072;-86
2021/12/07 12:56:31;;;;;;;;;;;;;;;;;;2064403;28;1276;-84
2021/12/07 12:57:31;;;;;;;;;;;;;;;;;;2065777;28;1848;-84
2021/12/07 12:58:38;;;;;;;;;;;;;;;;;;2073090;28;1294;-84
2021/12/07 12:59:51;;;;;;;;;;;;;;;;;;2072558;28;982;-84
2021/12/07 13:01:19;;;;;;;;;;;;;;;;;;2079779;28;1872;-83
2021/12/07 13:02:21;;;;;;;;;;;;;;;;;;2072250;28;1948;-85
2021/12/07 13:03:22;;;;;;;;;;;;;;;;;;2080555;28;1312;-83
2021/12/07 13:04:26;;;;;;;;;;;;;;;;;;2081194;28;1909;-83
2021/12/07 13:05:33;;;;;;;;;;;;;;;;;;2081014;28;1343;-83
2021/12/07 13:06:48;;;;;;;;;;;;;;;;;;2077542;28;1893;-86
2021/12/07 13:07:50;;;;;;;;;;;;;;;;;;2066846;28;1271;-83
2021/12/07 13:08:51;;;;;;;;;;;;;;;;;;2065130;28;1305;-84